sensor_id;sensor_type;location;lat;lon;timestamp;pressure;altitude;pressure_sealevel;temperature;humidity
19751;BME280;4663;49.120;9.730;2022-12-18T00:01:05;99217.34;;;-15.00;78.17
19751;BME280;4663;49.120;9.730;2022-12-18T00:03:38;99206.09;;;-15.07;78.27
19751;BME280;4663;49.120;9.730;2022-12-18T00:06:03;99225.97;;;-15.06;78.96
19751;BME280;4663;49.120;9.730;2022-12-18T00:08:29;99231.16;;;-15.07;78.83
19751;BME280;4663;49.120;9.730;2022-12-18T00:10:54;99233.75;;;-15.12;78.89
19751;BME280;4663;49.120;9.730;2022-12-18T00:13:20;99227.72;;;-15.08;78.63
19751;BME280;4663;49.120;9.730;2022-12-18T00:15:45;99232.94;;;-14.95;78.49
19751;BME280;4663;49.120;9.730;2022-12-18T00:18:11;99227.75;;;-14.98;77.59
19751;BME280;4663;49.120;9.730;2022-12-18T00:20:37;99222.47;;;-15.22;77.35
19751;BME280;4663;49.120;9.730;2022-12-18T00:23:04;99228.56;;;-15.13;78.16
19751;BME280;4663;49.120;9.730;2022-12-18T00:25:32;99232.84;;;-15.22;77.87
19751;BME280;4663;49.120;9.730;2022-12-18T00:27:58;99231.09;;;-15.23;78.51
19751;BME280;4663;49.120;9.730;2022-12-18T00:30:23;99243.25;;;-15.12;78.39
19751;BME280;4663;49.120;9.730;2022-12-18T00:32:48;99239.78;;;-15.16;77.88
19751;BME280;4663;49.120;9.730;2022-12-18T00:35:14;99229.41;;;-15.18;77.54
19751;BME280;4663;49.120;9.730;2022-12-18T00:37:39;99243.22;;;-15.22;77.85
19751;BME280;4663;49.120;9.730;2022-12-18T00:40:05;99237.19;;;-15.19;77.46
19751;BME280;4663;49.120;9.730;2022-12-18T00:42:30;99230.22;;;-15.30;77.78
19751;BME280;4663;49.120;9.730;2022-12-18T00:45:14;99224.19;;;-15.22;77.82
19751;BME280;4663;49.120;9.730;2022-12-18T00:47:40;99226.75;;;-15.27;77.66
19751;BME280;4663;49.120;9.730;2022-12-18T00:50:06;99235.41;;;-15.26;77.98
19751;BME280;4663;49.120;9.730;2022-12-18T00:52:31;99234.50;;;-15.36;77.89
19751;BME280;4663;49.120;9.730;2022-12-18T00:54:56;99221.59;;;-15.30;77.73
19751;BME280;4663;49.120;9.730;2022-12-18T00:57:22;99213.84;;;-15.21;77.20
19751;BME280;4663;49.120;9.730;2022-12-18T00:59:47;99217.25;;;-15.34;77.57
19751;BME280;4663;49.120;9.730;2022-12-18T01:02:13;99229.38;;;-15.25;77.81
19751;BME280;4663;49.120;9.730;2022-12-18T01:04:38;99228.44;;;-15.37;77.65
19751;BME280;4663;49.120;9.730;2022-12-18T01:07:03;99237.91;;;-15.45;78.11
19751;BME280;4663;49.120;9.730;2022-12-18T01:09:29;99240.56;;;-15.33;78.21
19751;BME280;4663;49.120;9.730;2022-12-18T01:11:54;99244.13;;;-15.12;77.40
19751;BME280;4663;49.120;9.730;2022-12-18T01:14:19;99231.03;;;-15.43;77.21
19751;BME280;4663;49.120;9.730;2022-12-18T01:16:45;99240.56;;;-15.37;78.13
19751;BME280;4663;49.120;9.730;2022-12-18T01:19:10;99244.84;;;-15.39;77.92
19751;BME280;4663;49.120;9.730;2022-12-18T01:21:36;99250.09;;;-15.30;77.90
19751;BME280;4663;49.120;9.730;2022-12-18T01:24:01;99244.06;;;-15.23;77.34
19751;BME280;4663;49.120;9.730;2022-12-18T01:26:27;99242.38;;;-15.15;76.58
19751;BME280;4663;49.120;9.730;2022-12-18T01:28:55;99250.09;;;-15.30;76.82
19751;BME280;4663;49.120;9.730;2022-12-18T01:31:26;99250.97;;;-15.28;77.13
19751;BME280;4663;49.120;9.730;2022-12-18T01:33:53;99263.88;;;-15.37;77.06
19751;BME280;4663;49.120;9.730;2022-12-18T01:36:23;99272.56;;;-15.28;77.67
19751;BME280;4663;49.120;9.730;2022-12-18T01:38:50;99264.69;;;-15.46;77.07
19751;BME280;4663;49.120;9.730;2022-12-18T01:41:18;99271.66;;;-15.31;76.85
19751;BME280;4663;49.120;9.730;2022-12-18T01:46:16;99255.25;;;-15.35;76.95
19751;BME280;4663;49.120;9.730;2022-12-18T01:48:42;99260.38;;;-15.41;77.71
19751;BME280;4663;49.120;9.730;2022-12-18T01:51:10;99261.34;;;-15.23;77.13
19751;BME280;4663;49.120;9.730;2022-12-18T01:53:36;99249.13;;;-15.48;77.21
19751;BME280;4663;49.120;9.730;2022-12-18T01:56:02;99258.72;;;-15.34;77.71
19751;BME280;4663;49.120;9.730;2022-12-18T01:58:54;99249.13;;;-15.52;77.73
19751;BME280;4663;49.120;9.730;2022-12-18T02:01:24;99258.66;;;-15.44;77.99
19751;BME280;4663;49.120;9.730;2022-12-18T02:03:51;99257.84;;;-15.35;77.24
19751;BME280;4663;49.120;9.730;2022-12-18T02:06:23;99257.78;;;-15.46;77.05
19751;BME280;4663;49.120;9.730;2022-12-18T02:09:02;99265.50;;;-15.52;77.67
19751;BME280;4663;49.120;9.730;2022-12-18T02:22:29;99254.31;;;-15.48;77.04
19751;BME280;4663;49.120;9.730;2022-12-18T02:25:17;99253.41;;;-15.62;77.19
19751;BME280;4663;49.120;9.730;2022-12-18T02:27:49;99265.53;;;-15.55;76.97
19751;BME280;4663;49.120;9.730;2022-12-18T02:30:16;99260.34;;;-15.60;77.00
19751;BME280;4663;49.120;9.730;2022-12-18T02:32:46;99268.03;;;-15.68;77.47
19751;BME280;4663;49.120;9.730;2022-12-18T02:35:17;99275.78;;;-15.75;78.05
19751;BME280;4663;49.120;9.730;2022-12-18T02:37:46;99270.56;;;-15.80;77.29
19751;BME280;4663;49.120;9.730;2022-12-18T02:40:13;99275.00;;;-15.62;77.53
19751;BME280;4663;49.120;9.730;2022-12-18T02:42:39;99274.97;;;-15.65;77.15
19751;BME280;4663;49.120;9.730;2022-12-18T02:45:05;99263.72;;;-15.69;77.32
19751;BME280;4663;49.120;9.730;2022-12-18T02:47:33;99262.00;;;-15.67;77.40
19751;BME280;4663;49.120;9.730;2022-12-18T02:53:26;99301.00;;;-15.43;79.69
19751;BME280;4663;49.120;9.730;2022-12-18T02:56:11;99309.84;;;-14.96;81.51
19751;BME280;4663;49.120;9.730;2022-12-18T02:58:49;99323.84;;;-14.61;82.43
19751;BME280;4663;49.120;9.730;2022-12-18T03:04:06;99296.06;;;-14.89;79.14
19751;BME280;4663;49.120;9.730;2022-12-18T03:06:44;99286.56;;;-14.90;78.43
19751;BME280;4663;49.120;9.730;2022-12-18T03:09:34;99280.34;;;-15.21;78.16
19751;BME280;4663;49.120;9.730;2022-12-18T03:12:24;99275.16;;;-15.26;78.07
19751;BME280;4663;49.120;9.730;2022-12-18T03:15:09;99262.22;;;-15.20;78.23
19751;BME280;4663;49.120;9.730;2022-12-18T03:17:36;99265.66;;;-15.25;77.34
19751;BME280;4663;49.120;9.730;2022-12-18T03:20:16;99277.78;;;-15.20;78.18
19751;BME280;4663;49.120;9.730;2022-12-18T03:22:44;99280.28;;;-15.34;77.99
19751;BME280;4663;49.120;9.730;2022-12-18T03:25:13;99273.38;;;-15.35;78.47
19751;BME280;4663;49.120;9.730;2022-12-18T03:27:43;99269.09;;;-15.28;77.80
19751;BME280;4663;49.120;9.730;2022-12-18T03:30:12;99259.53;;;-15.37;77.71
19751;BME280;4663;49.120;9.730;2022-12-18T03:32:44;99255.22;;;-15.43;77.35
19751;BME280;4663;49.120;9.730;2022-12-18T03:35:14;99257.75;;;-15.58;77.61
19751;BME280;4663;49.120;9.730;2022-12-18T03:37:42;99264.66;;;-15.59;77.96
19751;BME280;4663;49.120;9.730;2022-12-18T03:40:08;99268.97;;;-15.51;77.68
19751;BME280;4663;49.120;9.730;2022-12-18T03:45:12;99256.81;;;-15.67;77.16
19751;BME280;4663;49.120;9.730;2022-12-18T03:48:00;99265.41;;;-15.77;77.81
19751;BME280;4663;49.120;9.730;2022-12-18T03:53:58;99275.00;;;-15.62;77.08
19751;BME280;4663;49.120;9.730;2022-12-18T03:56:29;99272.41;;;-15.60;76.97
19751;BME280;4663;49.120;9.730;2022-12-18T03:58:57;99276.75;;;-15.56;76.38
19751;BME280;4663;49.120;9.730;2022-12-18T04:01:29;99274.09;;;-15.69;76.58
19751;BME280;4663;49.120;9.730;2022-12-18T04:03:58;99280.91;;;-15.80;77.16
19751;BME280;4663;49.120;9.730;2022-12-18T04:06:25;99286.19;;;-15.68;77.00
19751;BME280;4663;49.120;9.730;2022-12-18T04:08:52;99287.78;;;-15.85;77.45
19751;BME280;4663;49.120;9.730;2022-12-18T04:11:18;99283.53;;;-15.75;77.68
19751;BME280;4663;49.120;9.730;2022-12-18T04:13:43;99283.63;;;-15.63;77.45
19751;BME280;4663;49.120;9.730;2022-12-18T04:16:09;99287.00;;;-15.73;77.76
19751;BME280;4663;49.120;9.730;2022-12-18T04:18:35;99279.22;;;-15.78;76.71
19751;BME280;4663;49.120;9.730;2022-12-18T04:21:01;99278.38;;;-15.74;77.30
19751;BME280;4663;49.120;9.730;2022-12-18T04:23:27;99284.19;;;-16.03;77.31
19751;BME280;4663;49.120;9.730;2022-12-18T04:25:53;99299.81;;;-15.94;77.95
19751;BME280;4663;49.120;9.730;2022-12-18T04:28:19;99280.78;;;-15.96;77.35
19751;BME280;4663;49.120;9.730;2022-12-18T04:30:44;99291.81;;;-16.22;77.60
19751;BME280;4663;49.120;9.730;2022-12-18T04:33:11;99296.31;;;-15.96;77.87
19751;BME280;4663;49.120;9.730;2022-12-18T04:35:37;99292.97;;;-15.85;77.32
19751;BME280;4663;49.120;9.730;2022-12-18T04:38:02;99308.34;;;-16.04;77.42
19751;BME280;4663;49.120;9.730;2022-12-18T04:40:27;99312.03;;;-15.75;77.59
19751;BME280;4663;49.120;9.730;2022-12-18T04:42:53;99304.22;;;-15.78;77.46
19751;BME280;4663;49.120;9.730;2022-12-18T04:45:18;99298.19;;;-15.82;76.59
19751;BME280;4663;49.120;9.730;2022-12-18T04:47:43;99309.22;;;-16.00;77.88
19751;BME280;4663;49.120;9.730;2022-12-18T04:50:09;99298.25;;;-15.73;78.13
19751;BME280;4663;49.120;9.730;2022-12-18T04:52:34;99294.53;;;-16.03;77.74
19751;BME280;4663;49.120;9.730;2022-12-18T04:55:00;99307.47;;;-16.06;78.12
19751;BME280;4663;49.120;9.730;2022-12-18T04:57:25;99305.06;;;-15.84;77.84
19751;BME280;4663;49.120;9.730;2022-12-18T04:59:51;99297.31;;;-15.80;77.59
19751;BME280;4663;49.120;9.730;2022-12-18T05:02:16;99289.56;;;-15.75;77.31
19751;BME280;4663;49.120;9.730;2022-12-18T05:04:41;99291.94;;;-16.03;77.62
19751;BME280;4663;49.120;9.730;2022-12-18T05:07:07;99299.72;;;-16.03;78.34
19751;BME280;4663;49.120;9.730;2022-12-18T05:09:32;99314.56;;;-15.82;78.08
19751;BME280;4663;49.120;9.730;2022-12-18T05:11:58;99306.63;;;-16.05;78.48
19751;BME280;4663;49.120;9.730;2022-12-18T05:14:23;99314.28;;;-16.14;78.46
19751;BME280;4663;49.120;9.730;2022-12-18T05:16:48;99316.22;;;-15.90;78.27
19751;BME280;4663;49.120;9.730;2022-12-18T05:19:14;99321.59;;;-15.63;78.41
19751;BME280;4663;49.120;9.730;2022-12-18T05:21:39;99315.56;;;-15.65;77.82
19751;BME280;4663;49.120;9.730;2022-12-18T05:24:05;99312.53;;;-16.19;78.10
19751;BME280;4663;49.120;9.730;2022-12-18T05:26:30;99325.00;;;-15.69;79.03
19751;BME280;4663;49.120;9.730;2022-12-18T05:28:56;99312.75;;;-15.94;78.15
19751;BME280;4663;49.120;9.730;2022-12-18T05:31:22;99317.09;;;-15.89;78.38
19751;BME280;4663;49.120;9.730;2022-12-18T05:33:47;99318.84;;;-15.87;77.87
19751;BME280;4663;49.120;9.730;2022-12-18T05:36:12;99309.34;;;-15.85;77.16
19751;BME280;4663;49.120;9.730;2022-12-18T05:38:38;99307.69;;;-15.75;77.20
19751;BME280;4663;49.120;9.730;2022-12-18T05:41:04;99313.66;;;-15.88;78.14
19751;BME280;4663;49.120;9.730;2022-12-18T05:43:30;99323.09;;;-15.95;78.21
19751;BME280;4663;49.120;9.730;2022-12-18T05:45:56;99329.34;;;-15.70;78.66
19751;BME280;4663;49.120;9.730;2022-12-18T05:48:23;99316.47;;;-15.59;78.28
19751;BME280;4663;49.120;9.730;2022-12-18T05:50:49;99333.00;;;-15.33;78.85
19751;BME280;4663;49.120;9.730;2022-12-18T05:53:17;99341.66;;;-15.34;79.29
19751;BME280;4663;49.120;9.730;2022-12-18T05:55:43;99364.13;;;-15.30;81.38
19751;BME280;4663;49.120;9.730;2022-12-18T05:58:10;99329.44;;;-15.49;79.80
19751;BME280;4663;49.120;9.730;2022-12-18T06:00:39;99330.28;;;-15.55;79.43
19751;BME280;4663;49.120;9.730;2022-12-18T06:03:05;99336.28;;;-15.67;78.93
19751;BME280;4663;49.120;9.730;2022-12-18T06:05:42;99318.97;;;-15.67;78.16
19751;BME280;4663;49.120;9.730;2022-12-18T06:08:08;99319.94;;;-15.55;78.20
19751;BME280;4663;49.120;9.730;2022-12-18T06:10:34;99324.19;;;-15.68;77.98
19751;BME280;4663;49.120;9.730;2022-12-18T06:13:00;99333.75;;;-15.51;78.60
19751;BME280;4663;49.120;9.730;2022-12-18T06:15:25;99334.69;;;-15.42;78.51
19751;BME280;4663;49.120;9.730;2022-12-18T06:17:51;99328.69;;;-15.36;78.07
19751;BME280;4663;49.120;9.730;2022-12-18T06:20:16;99323.28;;;-15.72;77.95
19751;BME280;4663;49.120;9.730;2022-12-18T06:22:42;99335.31;;;-15.78;78.75
19751;BME280;4663;49.120;9.730;2022-12-18T06:25:07;99325.88;;;-15.72;78.28
19751;BME280;4663;49.120;9.730;2022-12-18T06:27:33;99332.94;;;-15.44;78.84
19751;BME280;4663;49.120;9.730;2022-12-18T06:30:05;99339.91;;;-15.38;79.13
19751;BME280;4663;49.120;9.730;2022-12-18T06:32:31;99351.25;;;-15.16;81.18
19751;BME280;4663;49.120;9.730;2022-12-18T06:34:56;99359.03;;;-15.18;81.74
19751;BME280;4663;49.120;9.730;2022-12-18T06:37:22;99340.03;;;-15.13;79.86
19751;BME280;4663;49.120;9.730;2022-12-18T06:39:51;99335.69;;;-15.19;79.07
19751;BME280;4663;49.120;9.730;2022-12-18T06:42:16;99334.84;;;-15.13;78.72
19751;BME280;4663;49.120;9.730;2022-12-18T06:44:42;99343.31;;;-15.43;79.10
19751;BME280;4663;49.120;9.730;2022-12-18T06:47:07;99326.84;;;-15.52;78.68
19751;BME280;4663;49.120;9.730;2022-12-18T06:49:32;99330.19;;;-15.69;79.06
19751;BME280;4663;49.120;9.730;2022-12-18T06:51:57;99346.69;;;-15.59;79.91
19751;BME280;4663;49.120;9.730;2022-12-18T06:54:23;99350.69;;;-15.96;80.42
19751;BME280;4663;49.120;9.730;2022-12-18T06:56:48;99358.81;;;-15.49;80.73
19751;BME280;4663;49.120;9.730;2022-12-18T06:59:15;99357.38;;;-15.06;81.94
19751;BME280;4663;49.120;9.730;2022-12-18T07:01:40;99359.94;;;-15.11;80.42
19751;BME280;4663;49.120;9.730;2022-12-18T07:04:07;99357.25;;;-15.26;80.25
19751;BME280;4663;49.120;9.730;2022-12-18T07:06:32;99358.03;;;-15.34;79.37
19751;BME280;4663;49.120;9.730;2022-12-18T07:08:58;99364.09;;;-15.36;80.28
19751;BME280;4663;49.120;9.730;2022-12-18T07:11:23;99366.75;;;-15.29;80.04
19751;BME280;4663;49.120;9.730;2022-12-18T07:13:49;99359.88;;;-15.20;79.23
19751;BME280;4663;49.120;9.730;2022-12-18T07:16:19;99350.28;;;-15.32;78.98
19751;BME280;4663;49.120;9.730;2022-12-18T07:18:47;99366.75;;;-15.24;78.68
19751;BME280;4663;49.120;9.730;2022-12-18T07:21:16;99364.06;;;-15.38;78.59
19751;BME280;4663;49.120;9.730;2022-12-18T07:23:42;99369.31;;;-15.27;78.91
19751;BME280;4663;49.120;9.730;2022-12-18T07:26:10;99362.44;;;-15.25;77.97
19751;BME280;4663;49.120;9.730;2022-12-18T07:28:37;99367.66;;;-15.20;78.31
19751;BME280;4663;49.120;9.730;2022-12-18T07:31:05;99373.66;;;-15.26;78.60
19751;BME280;4663;49.120;9.730;2022-12-18T07:33:31;99375.44;;;-15.19;78.83
19751;BME280;4663;49.120;9.730;2022-12-18T07:35:59;99381.56;;;-15.04;78.96
19751;BME280;4663;49.120;9.730;2022-12-18T07:38:24;99376.50;;;-14.82;78.85
19751;BME280;4663;49.120;9.730;2022-12-18T07:40:50;99376.44;;;-14.92;78.36
19751;BME280;4663;49.120;9.730;2022-12-18T07:43:15;99377.41;;;-14.74;77.93
19751;BME280;4663;49.120;9.730;2022-12-18T07:45:42;99374.81;;;-14.74;77.81
19751;BME280;4663;49.120;9.730;2022-12-18T07:48:07;99373.97;;;-14.70;78.03
19751;BME280;4663;49.120;9.730;2022-12-18T07:50:33;99375.63;;;-14.84;78.42
19751;BME280;4663;49.120;9.730;2022-12-18T07:52:58;99369.66;;;-14.63;77.95
19751;BME280;4663;49.120;9.730;2022-12-18T07:55:28;99369.69;;;-14.54;77.92
19751;BME280;4663;49.120;9.730;2022-12-18T07:57:54;99388.63;;;-14.78;79.39
19751;BME280;4663;49.120;9.730;2022-12-18T08:00:19;99390.47;;;-14.52;79.70
19751;BME280;4663;49.120;9.730;2022-12-18T08:02:44;99390.59;;;-14.16;80.06
19751;BME280;4663;49.120;9.730;2022-12-18T08:05:10;99385.34;;;-14.24;79.41
19751;BME280;4663;49.120;9.730;2022-12-18T08:07:35;99391.50;;;-14.03;79.02
19751;BME280;4663;49.120;9.730;2022-12-18T08:10:00;99387.19;;;-13.81;78.67
19751;BME280;4663;49.120;9.730;2022-12-18T08:12:26;99390.63;;;-14.02;78.59
19751;BME280;4663;49.120;9.730;2022-12-18T08:14:51;99389.78;;;-13.79;78.18
19751;BME280;4663;49.120;9.730;2022-12-18T08:17:16;99378.53;;;-13.88;77.95
19751;BME280;4663;49.120;9.730;2022-12-18T08:19:42;99384.56;;;-13.84;78.41
19751;BME280;4663;49.120;9.730;2022-12-18T08:22:07;99380.25;;;-13.97;78.69
19751;BME280;4663;49.120;9.730;2022-12-18T08:24:32;99407.97;;;-13.84;80.89
19751;BME280;4663;49.120;9.730;2022-12-18T08:26:58;99396.72;;;-13.61;80.12
19751;BME280;4663;49.120;9.730;2022-12-18T08:29:23;99395.84;;;-13.34;79.43
19751;BME280;4663;49.120;9.730;2022-12-18T08:31:49;99393.22;;;-13.05;79.55
19751;BME280;4663;49.120;9.730;2022-12-18T08:34:14;99389.78;;;-13.20;78.71
19751;BME280;4663;49.120;9.730;2022-12-18T08:36:40;99394.13;;;-13.16;78.93
19751;BME280;4663;49.120;9.730;2022-12-18T08:39:05;99398.34;;;-12.84;79.61
19751;BME280;4663;49.120;9.730;2022-12-18T08:41:30;99393.94;;;-12.66;79.49
19751;BME280;4663;49.120;9.730;2022-12-18T08:43:56;99396.41;;;-12.33;79.47
19751;BME280;4663;49.120;9.730;2022-12-18T08:46:41;99390.38;;;-12.43;78.71
19751;BME280;4663;49.120;9.730;2022-12-18T08:49:08;99395.59;;;-12.46;79.47
19751;BME280;4663;49.120;9.730;2022-12-18T08:51:34;99395.31;;;-11.93;80.06
19751;BME280;4663;49.120;9.730;2022-12-18T08:54:00;99391.84;;;-11.92;79.55
19751;BME280;4663;49.120;9.730;2022-12-18T08:56:26;99380.66;;;-12.10;79.52
19751;BME280;4663;49.120;9.730;2022-12-18T08:58:54;99395.16;;;-11.65;80.52
19751;BME280;4663;49.120;9.730;2022-12-18T09:01:20;99398.38;;;-11.36;80.48
19751;BME280;4663;49.120;9.730;2022-12-18T09:03:46;99390.44;;;-11.22;80.05
19751;BME280;4663;49.120;9.730;2022-12-18T09:06:14;99383.06;;;-10.81;80.07
19751;BME280;4663;49.120;9.730;2022-12-18T09:08:41;99388.00;;;-10.56;79.99
19751;BME280;4663;49.120;9.730;2022-12-18T09:11:12;99388.75;;;-10.46;79.43
19751;BME280;4663;49.120;9.730;2022-12-18T09:13:38;99395.66;;;-10.41;80.18
19751;BME280;4663;49.120;9.730;2022-12-18T09:16:04;99387.59;;;-10.24;79.66
19751;BME280;4663;49.120;9.730;2022-12-18T09:18:29;99390.06;;;-10.13;79.16
19751;BME280;4663;49.120;9.730;2022-12-18T09:20:54;99382.84;;;-9.93;79.13
19751;BME280;4663;49.120;9.730;2022-12-18T09:23:22;99372.16;;;-9.78;78.69
19751;BME280;4663;49.120;9.730;2022-12-18T09:25:47;99380.59;;;-9.60;78.50
19751;BME280;4663;49.120;9.730;2022-12-18T09:28:14;99371.44;;;-9.88;79.17
19751;BME280;4663;49.120;9.730;2022-12-18T09:30:42;99365.69;;;-9.55;79.35
19751;BME280;4663;49.120;9.730;2022-12-18T09:33:07;99366.88;;;-9.23;79.30
19751;BME280;4663;49.120;9.730;2022-12-18T09:35:36;99369.22;;;-9.07;78.42
19751;BME280;4663;49.120;9.730;2022-12-18T09:38:02;99357.75;;;-8.98;78.34
19751;BME280;4663;49.120;9.730;2022-12-18T09:40:34;99347.31;;;-8.56;77.95
19751;BME280;4663;49.120;9.730;2022-12-18T09:43:04;99349.03;;;-8.13;77.56
19751;BME280;4663;49.120;9.730;2022-12-18T09:45:44;99340.81;;;-7.98;76.18
19751;BME280;4663;49.120;9.730;2022-12-18T09:48:39;99347.47;;;-7.83;75.84
19751;BME280;4663;49.120;9.730;2022-12-18T09:51:19;99344.25;;;-7.58;75.18
19751;BME280;4663;49.120;9.730;2022-12-18T09:54:10;99344.84;;;-7.11;75.33
19751;BME280;4663;49.120;9.730;2022-12-18T09:56:41;99338.94;;;-7.20;74.01
19751;BME280;4663;49.120;9.730;2022-12-18T10:01:41;99354.69;;;-7.20;74.84
19751;BME280;4663;49.120;9.730;2022-12-18T10:04:08;99355.16;;;-7.38;74.65
19751;BME280;4663;49.120;9.730;2022-12-18T10:12:08;99332.69;;;-6.82;73.61
19751;BME280;4663;49.120;9.730;2022-12-18T10:20:05;99329.34;;;-6.57;73.33
19751;BME280;4663;49.120;9.730;2022-12-18T10:22:43;99320.22;;;-6.44;73.54
19751;BME280;4663;49.120;9.730;2022-12-18T10:25:26;99319.75;;;-6.58;72.97
19751;BME280;4663;49.120;9.730;2022-12-18T10:28:00;99315.78;;;-6.13;73.67
19751;BME280;4663;49.120;9.730;2022-12-18T10:30:32;99324.78;;;-5.92;72.31
19751;BME280;4663;49.120;9.730;2022-12-18T10:33:02;99311.94;;;-6.31;71.95
19751;BME280;4663;49.120;9.730;2022-12-18T10:35:28;99321.22;;;-5.91;71.84
19751;BME280;4663;49.120;9.730;2022-12-18T10:38:04;99332.22;;;-5.78;72.55
19751;BME280;4663;49.120;9.730;2022-12-18T10:40:30;99327.72;;;-5.74;71.86
19751;BME280;4663;49.120;9.730;2022-12-18T10:43:11;99318.81;;;-5.43;71.65
19751;BME280;4663;49.120;9.730;2022-12-18T10:45:37;99331.16;;;-5.72;71.68
19751;BME280;4663;49.120;9.730;2022-12-18T10:48:03;99341.41;;;-5.10;71.89
19751;BME280;4663;49.120;9.730;2022-12-18T10:50:32;99311.84;;;-5.18;69.88
19751;BME280;4663;49.120;9.730;2022-12-18T10:53:03;99333.91;;;-5.48;71.07
19751;BME280;4663;49.120;9.730;2022-12-18T10:55:34;99343.06;;;-5.08;71.76
19751;BME280;4663;49.120;9.730;2022-12-18T10:58:32;99321.44;;;-4.92;69.52
19751;BME280;4663;49.120;9.730;2022-12-18T11:03:34;99325.31;;;-4.77;69.95
19751;BME280;4663;49.120;9.730;2022-12-18T11:06:12;99311.06;;;-4.97;69.35
19751;BME280;4663;49.120;9.730;2022-12-18T11:08:38;99321.06;;;-5.07;69.37
19751;BME280;4663;49.120;9.730;2022-12-18T11:11:14;99305.00;;;-4.99;69.88
19751;BME280;4663;49.120;9.730;2022-12-18T11:13:47;99322.47;;;-4.96;70.45
19751;BME280;4663;49.120;9.730;2022-12-18T11:16:19;99292.13;;;-4.83;68.76
19751;BME280;4663;49.120;9.730;2022-12-18T11:18:45;99306.31;;;-4.87;69.43
19751;BME280;4663;49.120;9.730;2022-12-18T11:21:12;99309.63;;;-5.05;70.12
19751;BME280;4663;49.120;9.730;2022-12-18T11:23:47;99304.06;;;-4.72;70.23
19751;BME280;4663;49.120;9.730;2022-12-18T11:26:14;99300.47;;;-4.95;68.79
19751;BME280;4663;49.120;9.730;2022-12-18T11:28:44;99300.75;;;-5.03;70.09
19751;BME280;4663;49.120;9.730;2022-12-18T11:31:26;99284.69;;;-5.21;69.04
19751;BME280;4663;49.120;9.730;2022-12-18T11:36:21;99294.16;;;-5.15;70.53
19751;BME280;4663;49.120;9.730;2022-12-18T11:38:48;99291.50;;;-5.40;70.11
19751;BME280;4663;49.120;9.730;2022-12-18T11:43:54;99287.69;;;-5.31;70.42
19751;BME280;4663;49.120;9.730;2022-12-18T11:46:27;99283.56;;;-5.13;70.55
19751;BME280;4663;49.120;9.730;2022-12-18T11:49:13;99280.06;;;-4.90;70.08
19751;BME280;4663;49.120;9.730;2022-12-18T11:52:33;99283.06;;;-4.99;70.16
19751;BME280;4663;49.120;9.730;2022-12-18T11:54:38;99279.16;;;-5.13;70.26
19751;BME280;4663;49.120;9.730;2022-12-18T12:05:44;99265.41;;;-5.47;70.61
19751;BME280;4663;49.120;9.730;2022-12-18T12:08:39;99263.72;;;-5.75;70.50
19751;BME280;4663;49.120;9.730;2022-12-18T12:11:35;99268.97;;;-5.75;70.92
19751;BME280;4663;49.120;9.730;2022-12-18T12:19:53;99256.00;;;-5.81;71.34
19751;BME280;4663;49.120;9.730;2022-12-18T12:22:38;99255.72;;;-5.99;71.37
19751;BME280;4663;49.120;9.730;2022-12-18T12:28:09;99241.31;;;-6.15;71.06
19751;BME280;4663;49.120;9.730;2022-12-18T12:36:21;99255.44;;;-5.91;72.04
19751;BME280;4663;49.120;9.730;2022-12-18T12:38:54;99254.28;;;-6.09;71.51
19751;BME280;4663;49.120;9.730;2022-12-18T12:41:24;99256.81;;;-6.06;72.44
19751;BME280;4663;49.120;9.730;2022-12-18T12:44:16;99248.81;;;-6.30;72.37
19751;BME280;4663;49.120;9.730;2022-12-18T12:46:44;99246.34;;;-6.36;71.71
19751;BME280;4663;49.120;9.730;2022-12-18T12:49:18;99237.84;;;-6.16;71.93
19751;BME280;4663;49.120;9.730;2022-12-18T12:51:53;99245.59;;;-6.40;72.25
19751;BME280;4663;49.120;9.730;2022-12-18T12:54:24;99248.06;;;-6.35;72.86
19751;BME280;4663;49.120;9.730;2022-12-18T12:59:50;99239.91;;;-6.26;71.80
19751;BME280;4663;49.120;9.730;2022-12-18T13:07:45;99235.72;;;-6.04;71.92
19751;BME280;4663;49.120;9.730;2022-12-18T13:12:37;99231.69;;;-5.88;72.23
19751;BME280;4663;49.120;9.730;2022-12-18T13:15:23;99227.53;;;-5.95;71.40
19751;BME280;4663;49.120;9.730;2022-12-18T13:18:03;99243.75;;;-6.09;72.15
19751;BME280;4663;49.120;9.730;2022-12-18T13:20:36;99252.56;;;-6.10;72.63
19751;BME280;4663;49.120;9.730;2022-12-18T13:36:43;99241.56;;;-5.94;71.81
19751;BME280;4663;49.120;9.730;2022-12-18T13:41:45;99241.94;;;-6.07;71.66
19751;BME280;4663;49.120;9.730;2022-12-18T13:44:39;99249.38;;;-5.93;71.83
19751;BME280;4663;49.120;9.730;2022-12-18T13:47:28;99247.53;;;-6.46;71.85
19751;BME280;4663;49.120;9.730;2022-12-18T13:49:56;99242.69;;;-6.30;72.07
19751;BME280;4663;49.120;9.730;2022-12-18T13:52:28;99247.50;;;-6.45;72.83
19751;BME280;4663;49.120;9.730;2022-12-18T13:54:56;99239.28;;;-6.34;72.76
19751;BME280;4663;49.120;9.730;2022-12-18T13:57:32;99231.13;;;-6.55;72.46
19751;BME280;4663;49.120;9.730;2022-12-18T14:02:45;99229.44;;;-6.56;72.81
19751;BME280;4663;49.120;9.730;2022-12-18T14:05:40;99227.50;;;-6.79;73.53
19751;BME280;4663;49.120;9.730;2022-12-18T14:08:12;99236.34;;;-6.53;74.12
19751;BME280;4663;49.120;9.730;2022-12-18T14:10:43;99239.06;;;-6.56;73.67
19751;BME280;4663;49.120;9.730;2022-12-18T14:13:10;99220.16;;;-6.68;73.10
19751;BME280;4663;49.120;9.730;2022-12-18T14:15:43;99231.53;;;-6.67;74.04
19751;BME280;4663;49.120;9.730;2022-12-18T14:18:24;99234.59;;;-6.53;73.44
19751;BME280;4663;49.120;9.730;2022-12-18T14:20:53;99238.97;;;-6.53;73.48
19751;BME280;4663;49.120;9.730;2022-12-18T14:23:39;99238.09;;;-6.82;73.50
19751;BME280;4663;49.120;9.730;2022-12-18T14:26:28;99252.16;;;-6.55;73.51
19751;BME280;4663;49.120;9.730;2022-12-18T14:28:59;99257.03;;;-6.71;73.44
19751;BME280;4663;49.120;9.730;2022-12-18T14:31:30;99248.78;;;-6.89;73.50
19751;BME280;4663;49.120;9.730;2022-12-18T14:33:56;99252.94;;;-7.11;74.27
19751;BME280;4663;49.120;9.730;2022-12-18T14:36:26;99257.66;;;-6.93;74.79
19751;BME280;4663;49.120;9.730;2022-12-18T14:38:54;99245.34;;;-6.91;73.96
19751;BME280;4663;49.120;9.730;2022-12-18T14:41:21;99251.41;;;-6.89;74.01
19751;BME280;4663;49.120;9.730;2022-12-18T14:43:51;99244.22;;;-7.14;74.31
19751;BME280;4663;49.120;9.730;2022-12-18T14:48:59;99265.72;;;-7.32;75.95
19751;BME280;4663;49.120;9.730;2022-12-18T14:51:29;99252.44;;;-7.26;75.39
19751;BME280;4663;49.120;9.730;2022-12-18T14:54:00;99260.25;;;-7.23;75.42
19751;BME280;4663;49.120;9.730;2022-12-18T14:56:28;99255.66;;;-7.48;75.34